Time,TemperatureF,DewpointF,PressureIn,WindDirection,WindDirectionDegrees,WindSpeedMPH,WindSpeedGustMPH,Humidity,HourlyPrecipIn,Conditions,Clouds,dailyrainin,SoftwareType,DateUTC
2013-09-04 00:14:00,62.0,58.0,-100.00,West,262,0.0,0.0,87,0.00,,,0.13,,2013-09-04 04:14:00,
2013-09-04 00:44:00,61.0,58.0,-100.00,West,262,0.0,0.0,89,0.00,,,0.00,,2013-09-04 04:44:00,
2013-09-04 00:54:00,61.0,58.0,-100.00,West,262,0.0,0.0,90,0.00,,,0.00,,2013-09-04 04:54:00,
2013-09-04 01:12:00,61.0,58.0,-100.00,West,262,0.0,0.0,91,0.00,,,0.00,,2013-09-04 05:12:00,
2013-09-04 01:23:00,60.0,57.0,-100.00,West,262,0.0,0.0,91,0.00,,,0.00,,2013-09-04 05:23:00,
2013-09-04 01:43:00,60.0,57.0,-100.00,West,262,0.0,0.0,91,0.00,,,-99.99,,2013-09-04 05:43:00,
2013-09-04 01:53:00,60.0,57.0,-100.00,West,262,0.0,0.0,91,0.00,,,-99.99,,2013-09-04 05:53:00,
2013-09-04 02:12:00,60.0,58.0,-100.00,West,262,0.0,0.0,92,0.00,,,-99.99,,2013-09-04 06:12:00,
2013-09-04 02:22:00,60.0,58.0,-100.00,West,262,0.0,0.0,92,0.00,,,-99.99,,2013-09-04 06:22:00,
2013-09-04 02:42:00,59.0,57.0,-100.00,West,262,0.0,0.0,92,0.00,,,-99.99,,2013-09-04 06:42:00,
2013-09-04 02:52:00,59.0,57.0,-100.00,West,262,0.0,0.0,92,0.00,,,-99.99,,2013-09-04 06:52:00,
2013-09-04 03:11:00,59.0,57.0,-100.00,West,262,0.0,0.0,93,0.00,,,-99.99,,2013-09-04 07:11:00,
2013-09-04 03:22:00,59.0,57.0,-100.00,West,262,0.0,0.0,93,0.00,,,-99.99,,2013-09-04 07:22:00,
2013-09-04 03:42:00,59.0,57.0,-100.00,West,262,0.0,0.0,93,0.00,,,-99.99,,2013-09-04 07:42:00,
2013-09-04 03:52:00,59.0,57.0,-100.00,West,262,0.0,0.0,93,0.00,,,-99.99,,2013-09-04 07:52:00,
2013-09-04 04:13:00,59.0,57.0,-100.00,West,262,0.0,0.0,94,0.00,,,-99.99,,2013-09-04 08:13:00,
2013-09-04 04:22:00,59.0,57.0,-100.00,West,262,0.0,0.0,94,0.00,,,-99.99,,2013-09-04 08:22:00,
2013-09-04 04:52:00,59.0,57.0,-100.00,West,262,0.0,0.0,93,0.00,,,-99.99,,2013-09-04 08:52:00,
2013-09-04 05:12:00,59.0,57.0,-100.00,West,262,0.0,0.0,94,0.00,,,-99.99,,2013-09-04 09:12:00,
2013-09-04 05:22:00,59.0,57.0,-100.00,West,262,0.0,0.0,94,0.00,,,-99.99,,2013-09-04 09:22:00,
2013-09-04 05:43:00,60.0,58.0,-100.00,West,262,0.0,0.0,92,0.00,,,-99.99,,2013-09-04 09:43:00,
2013-09-04 05:53:00,60.0,58.0,-100.00,West,262,0.0,0.0,92,0.00,,,-99.99,,2013-09-04 09:53:00,
2013-09-04 06:12:00,60.0,57.0,-100.00,West,262,0.0,0.0,91,0.00,,,-99.99,,2013-09-04 10:12:00,
2013-09-04 06:23:00,60.0,57.0,-100.00,West,262,0.0,0.0,90,0.00,,,-99.99,,2013-09-04 10:23:00,
2013-09-04 06:42:00,60.0,57.0,-100.00,West,262,0.0,0.0,90,0.00,,,-99.99,,2013-09-04 10:42:00,
2013-09-04 06:52:00,60.0,57.0,-100.00,West,262,0.0,0.0,90,0.00,,,-99.99,,2013-09-04 10:52:00,
2013-09-04 07:12:00,60.0,57.0,-100.00,West,262,0.0,0.0,90,0.00,,,-99.99,,2013-09-04 11:12:00,
2013-09-04 07:22:00,60.0,57.0,-100.00,West,262,0.0,0.0,90,0.00,,,-99.99,,2013-09-04 11:22:00,
2013-09-04 07:52:00,60.0,57.0,-100.00,West,262,0.0,0.0,89,0.00,,,-99.99,,2013-09-04 11:52:00,
2013-09-04 08:12:00,61.0,57.0,-100.00,West,262,0.0,0.0,86,0.00,,,-99.99,,2013-09-04 12:12:00,
2013-09-04 08:21:00,62.0,57.0,-100.00,West,262,0.0,0.0,84,0.00,,,-99.99,,2013-09-04 12:21:00,
2013-09-04 08:42:00,63.0,57.0,-100.00,West,262,0.0,0.0,80,0.00,,,-99.99,,2013-09-04 12:42:00,
2013-09-04 08:52:00,64.0,57.0,-100.00,West,262,0.0,0.0,79,0.00,,,-99.99,,2013-09-04 12:52:00,
2013-09-04 09:12:00,65.0,56.0,-100.00,West,262,0.0,0.0,73,0.00,,,-99.99,,2013-09-04 13:12:00,
2013-09-04 09:22:00,66.0,56.0,-100.00,West,262,0.0,0.0,71,0.00,,,-99.99,,2013-09-04 13:22:00,
2013-09-04 09:52:00,69.0,56.0,-100.00,West,262,0.0,0.0,63,0.00,,,-99.99,,2013-09-04 13:52:00,
2013-09-04 10:11:00,70.0,54.0,-100.00,West,262,0.0,0.0,57,0.00,,,-99.99,,2013-09-04 14:11:00,
2013-09-04 10:21:00,70.0,54.0,-100.00,West,262,0.0,0.0,57,0.00,,,-99.99,,2013-09-04 14:21:00,
2013-09-04 10:42:00,71.0,54.0,-100.00,West,262,0.0,0.0,55,0.00,,,-99.99,,2013-09-04 14:42:00,
2013-09-04 10:52:00,72.0,54.0,-100.00,West,262,0.0,0.0,54,0.00,,,-99.99,,2013-09-04 14:52:00,
2013-09-04 11:12:00,73.0,53.0,-100.00,West,262,0.0,0.0,49,0.00,,,-99.99,,2013-09-04 15:12:00,
2013-09-04 11:22:00,73.0,54.0,-100.00,West,262,0.0,0.0,52,0.00,,,-99.99,,2013-09-04 15:22:00,
2013-09-04 11:43:00,74.0,55.0,-100.00,West,262,0.0,0.0,52,0.00,,,-99.99,,2013-09-04 15:43:00,
2013-09-04 11:53:00,75.0,55.0,-100.00,West,262,0.0,0.0,49,0.00,,,-99.99,,2013-09-04 15:53:00,
2013-09-04 12:12:00,75.0,55.0,-100.00,West,262,0.0,0.0,50,0.00,,,-99.99,,2013-09-04 16:12:00,
2013-09-04 12:23:00,76.0,56.0,-100.00,West,262,0.0,0.0,50,0.00,,,-99.99,,2013-09-04 16:23:00,
2013-09-04 12:43:00,77.0,56.0,-100.00,West,262,0.0,0.0,48,0.00,,,-99.99,,2013-09-04 16:43:00,
2013-09-04 12:53:00,77.0,56.0,-100.00,West,262,0.0,0.0,48,0.00,,,-99.99,,2013-09-04 16:53:00,
2013-09-04 13:13:00,77.0,54.0,-100.00,WSW,243,0.0,0.0,45,0.00,,,-99.99,,2013-09-04 17:13:00,
2013-09-04 13:23:00,78.0,58.0,-100.00,WSW,243,0.0,0.0,50,0.00,,,-99.99,,2013-09-04 17:23:00,
2013-09-04 13:42:00,79.0,55.0,-100.00,WSW,243,0.0,0.0,44,0.00,,,-99.99,,2013-09-04 17:42:00,
2013-09-04 13:52:00,79.0,54.0,-100.00,WSW,243,0.0,0.0,42,0.00,,,-99.99,,2013-09-04 17:52:00,
2013-09-04 14:13:00,80.0,54.0,-100.00,WSW,243,0.0,0.0,41,0.00,,,-99.99,,2013-09-04 18:13:00,
2013-09-04 14:22:00,80.0,55.0,-100.00,WSW,243,0.0,0.0,42,0.00,,,-99.99,,2013-09-04 18:22:00,
2013-09-04 14:42:00,80.0,55.0,-100.00,WSW,243,0.0,0.0,43,0.00,,,-99.99,,2013-09-04 18:42:00,
2013-09-04 14:52:00,80.0,53.0,-100.00,WSW,243,0.0,0.0,40,0.00,,,-99.99,,2013-09-04 18:52:00,
2013-09-04 15:11:00,81.0,55.0,-100.00,WSW,243,0.0,0.0,41,0.00,,,-99.99,,2013-09-04 19:11:00,
2013-09-04 15:22:00,81.0,54.0,-100.00,WSW,243,0.0,0.0,40,0.00,,,-99.99,,2013-09-04 19:22:00,
2013-09-04 15:42:00,82.0,53.0,-100.00,WSW,243,0.0,0.0,37,0.00,,,-99.99,,2013-09-04 19:42:00,
2013-09-04 15:52:00,82.0,53.0,-100.00,WSW,243,0.0,0.0,37,0.00,,,-99.99,,2013-09-04 19:52:00,
2013-09-04 16:12:00,82.0,54.0,-100.00,WSW,243,0.0,0.0,38,0.00,,,-99.99,,2013-09-04 20:12:00,
2013-09-04 16:22:00,82.0,55.0,-100.00,WSW,243,0.0,0.0,39,0.00,,,-99.99,,2013-09-04 20:22:00,
2013-09-04 16:43:00,82.0,55.0,-100.00,WSW,243,0.0,0.0,39,0.00,,,-99.99,,2013-09-04 20:43:00,
2013-09-04 16:53:00,82.0,56.0,-100.00,WSW,243,0.0,0.0,41,0.00,,,-99.99,,2013-09-04 20:53:00,
2013-09-04 17:12:00,82.0,53.0,-100.00,WSW,243,0.0,0.0,37,0.00,,,-99.99,,2013-09-04 21:12:00,
2013-09-04 17:22:00,82.0,54.0,-100.00,WSW,243,0.0,0.0,38,0.00,,,-99.99,,2013-09-04 21:22:00,
2013-09-04 17:44:00,81.0,55.0,-100.00,WSW,243,0.0,0.0,41,0.00,,,-99.99,,2013-09-04 21:44:00,
2013-09-04 17:54:00,81.0,56.0,-100.00,WSW,243,0.0,0.0,43,0.00,,,-99.99,,2013-09-04 21:54:00,
2013-09-04 18:14:00,80.0,55.0,-100.00,WSW,243,0.0,0.0,43,0.00,,,-99.99,,2013-09-04 22:14:00,
2013-09-04 18:23:00,80.0,57.0,-100.00,WSW,243,0.0,0.0,45,0.00,,,-99.99,,2013-09-04 22:23:00,
2013-09-04 18:54:00,79.0,57.0,-100.00,WSW,243,0.0,0.0,47,0.00,,,-99.99,,2013-09-04 22:54:00,
2013-09-04 19:13:00,78.0,57.0,-100.00,WSW,243,0.0,0.0,49,0.00,,,-99.99,,2013-09-04 23:13:00,
2013-09-04 19:22:00,77.0,57.0,-100.00,WSW,243,0.0,0.0,50,0.00,,,-99.99,,2013-09-04 23:22:00,
2013-09-04 19:42:00,76.0,59.0,-100.00,WSW,243,0.0,0.0,55,0.00,,,-99.99,,2013-09-04 23:42:00,
2013-09-04 19:52:00,75.0,59.0,-100.00,WSW,243,0.0,0.0,57,0.00,,,-99.99,,2013-09-04 23:52:00,
2013-09-04 20:12:00,73.0,59.0,-100.00,WSW,243,0.0,0.0,62,0.00,,,-99.99,,2013-09-05 00:12:00,
2013-09-04 20:22:00,72.0,60.0,-100.00,WSW,243,0.0,0.0,65,0.00,,,-99.99,,2013-09-05 00:22:00,
2013-09-04 20:43:00,70.0,59.0,-100.00,WSW,243,0.0,0.0,69,0.00,,,-99.99,,2013-09-05 00:43:00,
2013-09-04 20:52:00,69.0,59.0,-100.00,WSW,243,0.0,0.0,71,0.00,,,-99.99,,2013-09-05 00:52:00,
2013-09-04 21:12:00,68.0,59.0,-100.00,WSW,243,0.0,0.0,74,0.00,,,-99.99,,2013-09-05 01:12:00,
2013-09-04 21:22:00,68.0,60.0,-100.00,WSW,243,0.0,0.0,75,0.00,,,-99.99,,2013-09-05 01:22:00,
2013-09-04 21:42:00,67.0,60.0,-100.00,WSW,243,0.0,0.0,78,0.00,,,-99.99,,2013-09-05 01:42:00,
2013-09-04 21:52:00,66.0,59.0,-100.00,WSW,243,0.0,0.0,78,0.00,,,-99.99,,2013-09-05 01:52:00,
2013-09-04 22:12:00,66.0,60.0,-100.00,WSW,243,0.0,0.0,80,0.00,,,-99.99,,2013-09-05 02:12:00,
2013-09-04 22:22:00,66.0,60.0,-100.00,WSW,243,0.0,0.0,81,0.00,,,-99.99,,2013-09-05 02:22:00,
2013-09-04 23:12:00,64.0,59.0,-100.00,WSW,243,0.0,0.0,84,0.00,,,-99.99,,2013-09-05 03:12:00,
2013-09-04 23:22:00,64.0,59.0,-100.00,WSW,243,0.0,0.0,85,0.00,,,-99.99,,2013-09-05 03:22:00,
2013-09-04 23:45:00,64.0,60.0,-100.00,WSW,243,0.0,0.0,86,0.00,,,-99.99,,2013-09-05 03:45:00,
2013-09-04 23:54:00,64.0,60.0,-100.00,WSW,243,0.0,0.0,86,0.00,,,-99.99,,2013-09-05 03:54:00,